WetterOnline ( https://www.wetteronline.de )

Wetter aktuell Regensburg

Aktuelles Wetter: Regensburg/Oberhub (371m)

6-stündlich | Neueste Meldungen
Ortszeit Temperatur Wetter
Mi, 28.09. 8:00 7.6° C bedeckt
Mi, 28.09. 2:00 6.1° C leicht bewölkt
Di, 27.09. 20:00 8.2° C Sprühregen
Di, 27.09. 14:00 11.9° C bewölkt
Di, 27.09. 8:00 9.6° C bedeckt
Di, 27.09. 2:00 10.7° C wolkig
Mo, 26.09. 20:00 12.2° C wolkig
Mo, 26.09. 14:00 17.3° C wolkig
Ortszeit Temperatur Wetter
Mi, 28.09. 13:30 11.1° C bewölkt
Mi, 28.09. 13:20 11.1° C bewölkt
Mi, 28.09. 13:10 11.4° C bewölkt
Mi, 28.09. 13:00 10.3° C bewölkt
Mi, 28.09. 12:50 10.3° C bewölkt
Mi, 28.09. 12:40 10.5° C bewölkt
Mi, 28.09. 12:30 10.1° C bewölkt
Mi, 28.09. 12:00 9.4° C leichter Regen
Mi, 28.09. 11:30 9.8° C leichter Regen
Mi, 28.09. 11:00 9.2° C leichter Regen
Mi, 28.09. 10:30 9.0° C Sprühregen
Ortszeit Relative Feuchte Sichtweite
Mi, 28.09. 8:00 97% 35 km
Mi, 28.09. 2:00 95% >70 km
Di, 27.09. 20:00 94% 40 km
Di, 27.09. 14:00 72% >70 km
Di, 27.09. 8:00 94% 60 km
Di, 27.09. 2:00 80% 65 km
Mo, 26.09. 20:00 75% 65 km
Mo, 26.09. 14:00 50% >70 km
Ortszeit Relative Feuchte Sichtweite
Mi, 28.09. 13:30 75% >70 km
Mi, 28.09. 13:20 75% -
Mi, 28.09. 13:10 77% -
Mi, 28.09. 13:00 81% >70 km
Mi, 28.09. 12:50 81% -
Mi, 28.09. 12:40 82% -
Mi, 28.09. 12:30 83% >70 km
Mi, 28.09. 12:00 89% 55 km
Mi, 28.09. 11:30 92% 60 km
Mi, 28.09. 11:00 95% 25 km
Mi, 28.09. 10:30 94% 40 km
Ortszeit Niederschlagsmenge Niederschlagsart
Mi, 28.09. 8:00 3 l/m2 in 12 Std. Regen
Mi, 28.09. 2:00 1 l/m2 in 6 Std. Regen
Di, 27.09. 20:00 2 l/m2 in 12 Std. Regen
Di, 27.09. 14:00 0.1 l/m2 in 6 Std. Regen
Di, 27.09. 8:00 2 l/m2 in 12 Std. Regen
Di, 27.09. 2:00 0.0 l/m2 in 6 Std. -
Mo, 26.09. 20:00 0.1 l/m2 in 12 Std. -
Mo, 26.09. 14:00 0.1 l/m2 in 6 Std. Sprühregen
Ortszeit Niederschlagsmenge Niederschlagsart
Mi, 28.09. 13:30 <0.05 l/m2 in 1 Std. -
Mi, 28.09. 13:20 keine Meldung -
Mi, 28.09. 13:10 keine Meldung -
Mi, 28.09. 13:00 <0.05 l/m2 in 1 Std. Regen
Mi, 28.09. 12:50 keine Meldung -
Mi, 28.09. 12:40 keine Meldung -
Mi, 28.09. 12:30 <0.05 l/m2 in 1 Std. Schneeregen
Mi, 28.09. 12:00 0.1 l/m2 in 1 Std. Regen
Mi, 28.09. 11:30 0.1 l/m2 in 1 Std. -
Mi, 28.09. 11:00 0.1 l/m2 in 1 Std. Regen
Mi, 28.09. 10:30 0.1 l/m2 in 1 Std. -
Ortszeit Stärke Spitze Richtung
km/h Bft. km/h Grad Sektor
Mi, 28.09. 8:00 13 3 26 140° SO
Mi, 28.09. 2:00 11 2 22 220° SW
Di, 27.09. 20:00 7 2 43 200° S
Di, 27.09. 14:00 17 3 43 250° W
Di, 27.09. 8:00 11 2 22 220° SW
Di, 27.09. 2:00 9 2 19 140° SO
Mo, 26.09. 20:00 7 2 25 150° SO
Mo, 26.09. 14:00 9 2 22 220° SW
Ortszeit Stärke Spitze Richtung
km/h Bft. km/h Grad Sektor
Mi, 28.09. 13:30 14 3 25 250° W
Mi, 28.09. 13:20 14 3 - 250° W
Mi, 28.09. 13:10 11 2 - 260° W
Mi, 28.09. 13:00 11 2 24 270° W
Mi, 28.09. 12:50 11 2 - 270° W
Mi, 28.09. 12:40 11 2 - 250° W
Mi, 28.09. 12:30 11 2 22 270° W
Mi, 28.09. 12:00 11 2 22 260° W
Mi, 28.09. 11:30 9 2 20 230° SW
Mi, 28.09. 11:00 7 2 25 250° W
Mi, 28.09. 10:30 9 2 26 230° SW
Ortszeit Untergrenze Bedeckung Gattung
total tief tief mittel hoch
Mi, 28.09. 8:00 90 m 8/8 8/8 - - -
Mi, 28.09. 2:00 1500 m 4/8 2/8 - - -
Di, 27.09. 20:00 1020 m 8/8 8/8 - - -
Di, 27.09. 14:00 1080 m 7/8 6/8 - - -
Di, 27.09. 8:00 630 m 8/8 8/8 - - -
Di, 27.09. 2:00 2100 m 8/8 2/8 - - -
Mo, 26.09. 20:00 2100 m 8/8 1/8 - - -
Mo, 26.09. 14:00 1050 m 6/8 6/8 - - -
Ortszeit Bedeckungsgrad in Achtel und Wolkenuntergrenze
Mi, 28.09. 13:30 3(690m) 7(1500m) 7(5400m)
Mi, 28.09. 13:20 3(690m) 7(1500m) 7(5400m)
Mi, 28.09. 13:10 7
Mi, 28.09. 13:00 5(510m) 7(720m) 7(5400m)
Mi, 28.09. 12:50 5(510m) 7(720m) 7(5400m)
Mi, 28.09. 12:40 7
Mi, 28.09. 12:30 7(510m) 7(2100m) 8(3000m)
Mi, 28.09. 12:00 6(480m) 7(1440m) 7(2100m)
Mi, 28.09. 11:30 1(330m) 7(1800m) 8(2100m)
Mi, 28.09. 11:00 5(270m) 7(630m) 8(2100m)
Mi, 28.09. 10:30 3(210m) 8(690m) 8(1020m)
Ortszeit Luftdruck NN (hPa) Tendenz (hPa in 3 Std.)
Mi, 28.09. 8:00 997 - 2,5
Mi, 28.09. 2:00 1003 - 0,5
Di, 27.09. 20:00 1003 + 0,8
Di, 27.09. 14:00 1001 + 0,5
Di, 27.09. 8:00 999 - 0,4
Di, 27.09. 2:00 1001 - 2,9
Mo, 26.09. 20:00 1005 - 0,6
Mo, 26.09. 14:00 1007 - 1,6
Ortszeit Luftdruck NN (hPa) Tendenz (hPa in 3 Std.)
Mi, 28.09. 13:30 999 + 1,1
Mi, 28.09. 13:20 999 keine Meldung
Mi, 28.09. 13:10 999 keine Meldung
Mi, 28.09. 13:00 999 + 1,5
Mi, 28.09. 12:50 999 keine Meldung
Mi, 28.09. 12:40 999 keine Meldung
Mi, 28.09. 12:30 999 + 1,6
Mi, 28.09. 12:00 999 + 1,7
Mi, 28.09. 11:30 998 + 1,4
Mi, 28.09. 11:00 998 + 1,0
Mi, 28.09. 10:30 998 + 0,6
Ortszeit Schneehöhe (cm)
Mi, 28.09. 8:00 0
Mi, 28.09. 2:00 0
Di, 27.09. 20:00 0
Di, 27.09. 14:00 0
Di, 27.09. 8:00 0
Di, 27.09. 2:00 0
Mo, 26.09. 20:00 0
Mo, 26.09. 14:00 0
Ortszeit Schneehöhe (cm)
Mi, 28.09. 13:30 0
Mi, 28.09. 13:20 0
Mi, 28.09. 13:10 0
Mi, 28.09. 13:00 0
Mi, 28.09. 12:50 0
Mi, 28.09. 12:40 0
Mi, 28.09. 12:30 0
Mi, 28.09. 12:00 0
Mi, 28.09. 11:30 0
Mi, 28.09. 11:00 0
Mi, 28.09. 10:30 0
Link zu dieser Seite / Seite empfehlen

Das Wetter in ...